createdAt,value
2024-05-09T00:02:10.218Z,7.93
2024-05-09T00:06:40.927Z,8.40
2024-05-09T00:11:20.230Z,9.43
2024-05-09T00:15:47.245Z,6.80
2024-05-09T00:20:35.047Z,8.20
2024-05-09T00:25:01.187Z,7.13
2024-05-09T00:29:23.889Z,8.80
2024-05-09T00:33:50.035Z,7.37
2024-05-09T00:38:16.061Z,6.83
2024-05-09T00:42:42.130Z,5.97
2024-05-09T00:47:10.068Z,9.03
2024-05-09T00:51:39.258Z,7.47
2024-05-09T00:56:09.986Z,6.63
2024-05-09T01:00:42.651Z,5.53
2024-05-09T01:05:10.912Z,6.20
2024-05-09T01:09:34.532Z,5.07
2024-05-09T01:14:05.536Z,8.13
2024-05-09T01:18:35.175Z,8.20
2024-05-09T01:23:02.704Z,10.07
2024-05-09T01:27:29.028Z,7.17
2024-05-09T01:31:56.698Z,7.43
2024-05-09T01:36:25.507Z,8.40
2024-05-09T01:40:57.115Z,7.13
2024-05-09T01:45:28.089Z,15.23
2024-05-09T01:49:52.001Z,6.07
2024-05-09T01:54:19.280Z,7.03
2024-05-09T01:59:04.842Z,6.33
2024-05-09T02:03:31.085Z,7.77
2024-05-09T02:07:58.971Z,8.63
2024-05-09T02:12:26.216Z,6.90
2024-05-09T02:16:56.553Z,11.97
2024-05-09T02:21:26.248Z,8.70
2024-05-09T02:25:54.304Z,7.63
2024-05-09T02:30:30.380Z,10.13
2024-05-09T02:35:05.469Z,7.40
2024-05-09T02:39:32.212Z,8.80
2024-05-09T02:44:03.725Z,9.37
2024-05-09T02:48:35.756Z,9.57
2024-05-09T02:53:06.296Z,9.43
2024-05-09T02:57:36.384Z,9.87
2024-05-09T03:02:06.659Z,8.57
2024-05-09T03:06:39.045Z,12.50
2024-05-09T03:11:01.656Z,11.47
2024-05-09T03:15:24.251Z,10.40
2024-05-09T03:19:47.004Z,10.00
2024-05-09T03:24:13.527Z,10.83
2024-05-09T03:28:41.291Z,9.57
2024-05-09T03:33:08.531Z,9.83
2024-05-09T03:37:35.959Z,8.37
2024-05-09T03:42:03.238Z,12.60
2024-05-09T03:46:28.010Z,9.40
2024-05-09T03:50:50.988Z,10.07
2024-05-09T03:55:23.805Z,10.70
2024-05-09T03:59:47.942Z,11.87
2024-05-09T04:04:11.489Z,10.63
2024-05-09T04:08:35.808Z,11.27
2024-05-09T04:12:59.818Z,9.30
2024-05-09T04:17:23.968Z,9.45
2024-05-09T04:21:48.102Z,9.87
2024-05-09T04:26:11.189Z,8.00
2024-05-09T04:30:39.250Z,11.40
2024-05-09T04:35:06.077Z,9.93
2024-05-09T04:39:29.760Z,9.27
2024-05-09T04:43:53.625Z,9.63
2024-05-09T04:48:17.903Z,9.37
2024-05-09T04:52:41.608Z,10.43
2024-05-09T04:57:06.076Z,9.20
2024-05-09T05:01:31.162Z,10.60
2024-05-09T05:05:59.207Z,10.77
2024-05-09T05:10:29.580Z,9.70
2024-05-09T05:14:59.465Z,10.83
2024-05-09T05:19:23.019Z,11.67
2024-05-09T05:23:47.538Z,13.77
2024-05-09T05:28:12.226Z,12.43
2024-05-09T05:32:41.132Z,11.03
2024-05-09T05:37:08.410Z,12.00
2024-05-09T05:41:31.504Z,10.70
2024-05-09T05:45:55.768Z,10.87
2024-05-09T05:50:27.499Z,11.03
2024-05-09T05:54:58.228Z,7.93
2024-05-09T05:59:24.918Z,6.30
2024-05-09T06:03:49.414Z,5.73
2024-05-09T06:08:12.807Z,6.60
2024-05-09T06:12:39.158Z,7.28
2024-05-09T06:17:03.861Z,4.28
2024-05-09T06:21:28.216Z,4.32
2024-05-09T06:25:53.099Z,4.55
2024-05-09T06:30:25.418Z,5.78
2024-05-09T06:34:54.863Z,4.05
2024-05-09T06:39:22.496Z,3.17
2024-05-09T06:43:47.327Z,4.03
2024-05-09T06:48:11.617Z,7.05
2024-05-09T06:52:36.475Z,4.20
2024-05-09T06:56:59.417Z,4.63
2024-05-09T07:01:32.248Z,6.35
2024-05-09T07:05:59.511Z,4.18
2024-05-09T07:10:29.034Z,3.67
2024-05-09T07:15:05.644Z,3.08
2024-05-09T07:19:31.157Z,3.97
2024-05-09T07:23:55.881Z,3.28
2024-05-09T07:28:20.775Z,5.13
2024-05-09T07:32:45.511Z,3.58
2024-05-09T07:37:12.682Z,3.33
2024-05-09T07:41:36.623Z,4.57
2024-05-09T07:46:37.827Z,3.30
2024-05-09T07:55:14.114Z,5.97
2024-05-09T08:04:30.403Z,4.47
2024-05-09T08:08:56.081Z,4.90
2024-05-09T08:13:22.315Z,6.05
2024-05-09T08:17:47.851Z,5.10
2024-05-09T08:22:14.213Z,3.97
2024-05-09T08:26:38.187Z,5.20
2024-05-09T08:31:06.635Z,7.18
2024-05-09T08:35:30.669Z,6.90
2024-05-09T08:44:32.598Z,5.55
2024-05-09T08:48:58.049Z,5.22
2024-05-09T08:53:22.261Z,7.20
2024-05-09T08:57:47.451Z,5.18
2024-05-09T09:02:21.656Z,4.38
2024-05-09T09:06:46.164Z,4.90
2024-05-09T09:11:12.112Z,5.38
2024-05-09T09:20:42.151Z,4.85
2024-05-09T09:25:08.210Z,5.55
2024-05-09T09:29:36.832Z,5.88
2024-05-09T09:34:08.554Z,5.07
2024-05-09T09:38:35.783Z,6.70
2024-05-09T09:43:02.317Z,6.30
2024-05-09T09:47:30.087Z,4.20
2024-05-09T09:51:53.392Z,4.13
2024-05-09T09:56:18.778Z,5.60
2024-05-09T10:00:42.970Z,4.57
2024-05-09T10:05:08.512Z,6.15
2024-05-09T10:09:33.757Z,5.28
2024-05-09T10:13:59.104Z,7.22
2024-05-09T10:18:36.370Z,7.95
2024-05-09T10:22:59.678Z,6.15
2024-05-09T10:27:33.978Z,4.32
2024-05-09T10:32:02.113Z,5.35
2024-05-09T10:36:30.954Z,5.38
2024-05-09T10:40:58.931Z,4.97
2024-05-09T10:45:25.557Z,4.88
2024-05-09T10:49:49.785Z,5.90
2024-05-09T10:54:15.030Z,7.28
2024-05-09T10:58:38.112Z,5.53
2024-05-09T11:03:08.664Z,6.13
2024-05-09T11:07:32.525Z,8.88
2024-05-09T11:12:04.943Z,4.80
2024-05-09T11:16:29.696Z,5.82
2024-05-09T11:20:54.985Z,5.82
2024-05-09T11:25:19.621Z,5.05
2024-05-09T11:29:48.379Z,6.38
2024-05-09T11:34:13.866Z,5.10
2024-05-09T11:38:37.684Z,4.25
2024-05-09T11:43:01.829Z,6.20
2024-05-09T11:47:26.762Z,5.30
2024-05-09T11:51:51.353Z,6.25
2024-05-09T11:56:16.321Z,9.73
2024-05-09T12:00:40.035Z,5.88
2024-05-09T12:05:04.470Z,4.30
2024-05-09T12:09:29.177Z,4.97
2024-05-09T12:13:54.132Z,4.50
2024-05-09T12:18:18.524Z,4.25
2024-05-09T12:22:52.343Z,5.93
2024-05-09T12:27:15.732Z,5.63
2024-05-09T12:31:39.562Z,5.72
2024-05-09T12:36:03.675Z,5.03
2024-05-09T12:40:35.681Z,4.45
2024-05-09T12:45:03.132Z,6.75
2024-05-09T12:49:29.223Z,4.38
2024-05-09T12:53:54.796Z,6.72
2024-05-09T12:58:19.401Z,5.00
2024-05-09T13:02:43.836Z,7.05
2024-05-09T13:07:08.574Z,5.22
2024-05-09T13:11:32.877Z,5.18
2024-05-09T13:15:57.635Z,5.53
2024-05-09T13:20:33.020Z,6.32
2024-05-09T13:25:04.873Z,6.63
2024-05-09T13:29:27.616Z,7.03
2024-05-09T13:33:51.518Z,7.15
2024-05-09T13:38:15.651Z,6.47
2024-05-09T13:42:39.976Z,7.68
2024-05-09T13:47:04.287Z,4.78
2024-05-09T13:51:28.134Z,6.00
2024-05-09T13:55:52.448Z,5.38
2024-05-09T14:00:31.598Z,4.60
2024-05-09T14:05:00.438Z,5.70
2024-05-09T14:09:23.784Z,5.45
2024-05-09T14:13:48.081Z,6.40
2024-05-09T14:18:13.878Z,4.47
2024-05-09T14:22:38.383Z,6.50
2024-05-09T14:27:01.984Z,7.65
2024-05-09T14:31:26.106Z,6.00
2024-05-09T14:35:57.197Z,4.50
2024-05-09T14:44:49.802Z,4.10
2024-05-09T14:49:13.326Z,5.10
2024-05-09T14:53:37.331Z,6.03
2024-05-09T14:58:03.564Z,5.63
2024-05-09T15:02:27.721Z,4.20
2024-05-09T15:06:51.687Z,5.43
2024-05-09T15:11:15.329Z,5.75
2024-05-09T15:15:39.778Z,4.40
2024-05-09T15:20:09.208Z,5.70
2024-05-09T15:24:34.372Z,5.70
2024-05-09T15:29:01.254Z,5.20
2024-05-09T15:33:25.906Z,6.35
2024-05-09T15:37:50.974Z,6.45
2024-05-09T15:42:20.303Z,5.88
2024-05-09T15:46:44.961Z,5.97
2024-05-09T15:51:17.112Z,6.70
2024-05-09T15:55:42.800Z,5.50
2024-05-09T16:00:09.826Z,5.55
2024-05-09T16:04:37.188Z,5.00
2024-05-09T16:09:03.614Z,5.75
2024-05-09T16:13:27.170Z,5.07
2024-05-09T16:17:51.515Z,6.15
2024-05-09T16:22:16.044Z,5.68
2024-05-09T16:26:54.395Z,7.32
2024-05-09T16:31:18.442Z,5.05
2024-05-09T16:35:45.903Z,6.50
2024-05-09T16:40:21.765Z,5.82
2024-05-09T16:45:07.183Z,6.35
2024-05-09T16:49:35.532Z,8.40
2024-05-09T16:53:59.716Z,7.03
2024-05-09T16:58:23.952Z,7.18
2024-05-09T17:02:48.321Z,7.05
2024-05-09T17:07:14.674Z,7.93
2024-05-09T17:11:37.486Z,7.93
2024-05-09T17:16:00.402Z,6.28
2024-05-09T17:20:32.680Z,5.57
2024-05-09T17:25:00.798Z,10.55
2024-05-09T17:29:28.745Z,8.57
2024-05-09T17:34:06.184Z,6.03
2024-05-09T17:38:29.875Z,6.03
2024-05-09T17:42:54.529Z,5.95
2024-05-09T17:47:24.112Z,6.60
2024-05-09T17:52:33.234Z,6.30
2024-05-09T17:56:40.498Z,7.88
2024-05-09T18:01:03.241Z,7.15
2024-05-09T18:05:30.150Z,6.85
2024-05-09T18:09:53.784Z,6.93
2024-05-09T18:14:17.874Z,9.35
2024-05-09T18:18:42.827Z,8.32
2024-05-09T18:23:11.192Z,6.72
2024-05-09T18:27:35.633Z,7.45
2024-05-09T18:32:00.489Z,10.23
2024-05-09T18:41:14.426Z,8.68
2024-05-09T18:45:39.134Z,8.45
2024-05-09T18:50:05.999Z,9.15
2024-05-09T18:54:35.562Z,9.68
2024-05-09T18:59:04.624Z,9.60
2024-05-09T19:03:33.529Z,8.23
2024-05-09T19:07:57.450Z,9.05
2024-05-09T19:17:13.285Z,9.77
2024-05-09T19:21:37.410Z,10.23
2024-05-09T19:26:05.771Z,9.45
2024-05-09T19:30:38.735Z,11.00
2024-05-09T19:35:08.688Z,10.75
2024-05-09T19:39:40.131Z,11.63
2024-05-09T19:44:07.425Z,10.35
2024-05-09T19:48:35.142Z,10.93
2024-05-09T19:53:05.018Z,11.32
2024-05-09T19:57:43.819Z,9.97
2024-05-09T20:02:06.901Z,9.82
2024-05-09T20:06:34.648Z,9.73
2024-05-09T20:10:58.841Z,9.55
2024-05-09T20:15:28.958Z,10.68
2024-05-09T20:20:01.768Z,9.05
2024-05-09T20:24:31.880Z,9.70
2024-05-09T20:28:57.788Z,10.90
2024-05-09T20:33:24.829Z,9.30
2024-05-09T20:37:51.867Z,9.45
2024-05-09T20:42:14.890Z,11.13
2024-05-09T20:46:49.381Z,10.52
2024-05-09T20:51:17.449Z,11.70
2024-05-09T20:55:47.000Z,11.68
2024-05-09T21:00:37.654Z,11.13
2024-05-09T21:05:07.319Z,10.87
2024-05-09T21:09:38.705Z,14.87
2024-05-09T21:14:05.492Z,13.80
2024-05-09T21:18:31.699Z,11.95
2024-05-09T21:22:58.733Z,12.80
2024-05-09T21:27:24.866Z,12.23
2024-05-09T21:36:40.873Z,14.27
2024-05-09T21:41:06.679Z,15.43
2024-05-09T21:45:34.757Z,17.60
2024-05-09T21:50:02.089Z,14.87
2024-05-09T21:54:28.778Z,11.87
2024-05-09T21:58:55.144Z,13.93
2024-05-09T22:03:23.188Z,12.70
2024-05-09T22:07:56.350Z,13.27
2024-05-09T22:12:26.795Z,12.93
2024-05-09T22:17:07.061Z,11.83
2024-05-09T22:21:32.775Z,11.23
2024-05-09T22:26:01.322Z,12.00
2024-05-09T22:30:34.625Z,14.63
2024-05-09T22:35:13.763Z,12.87
2024-05-09T22:39:43.792Z,14.77
2024-05-09T22:44:15.438Z,16.00
2024-05-09T22:48:43.462Z,15.70
2024-05-09T22:53:11.045Z,17.90
2024-05-09T22:57:39.024Z,15.37
2024-05-09T23:02:15.812Z,15.70
2024-05-09T23:06:51.977Z,15.30
2024-05-09T23:11:22.295Z,14.63
2024-05-09T23:15:50.624Z,17.70
2024-05-09T23:20:29.702Z,18.20
2024-05-09T23:25:04.076Z,18.67
2024-05-09T23:29:37.687Z,15.40
2024-05-09T23:34:05.792Z,14.33
2024-05-09T23:38:37.063Z,16.17
2024-05-09T23:43:02.967Z,16.77
2024-05-09T23:47:34.093Z,13.10
2024-05-09T23:52:19.013Z,19.47
2024-05-09T23:56:49.620Z,15.43
